Time;durP1;ratioP1;P1;durP2;ratioP2;P2;SDS_P1;SDS_P2;PMS_P1;PMS_P2;Temp;Humidity;BMP_temperature;BMP_pressure;BME280_temperature;BME280_humidity;BME280_pressure;Samples;Min_cycle;Max_cycle;Signal;HPM_P1;HPM_P2
2022/08/04 00:02:26;;;;;;;6.28;3.30;;;21.20;90.10;;;;;;5036899;28;20025;-77
2022/08/04 00:05:02;;;;;;;6.22;2.78;;;21.00;90.20;;;;;;5019532;28;20064;-76
2022/08/04 00:07:30;;;;;;;5.88;2.95;;;21.00;90.40;;;;;;5037329;28;20374;-77
2022/08/04 00:10:01;;;;;;;5.07;2.88;;;20.90;90.40;;;;;;5036504;28;20026;-77
2022/08/04 00:12:32;;;;;;;4.22;2.78;;;20.90;90.50;;;;;;5037485;28;20022;-73
2022/08/04 00:14:59;;;;;;;5.28;3.03;;;20.70;90.60;;;;;;5037316;28;20437;-77
2022/08/04 00:17:30;;;;;;;6.53;3.25;;;20.70;90.80;;;;;;5036648;28;20033;-77
2022/08/04 00:20:00;;;;;;;7.43;2.72;;;20.70;91.00;;;;;;5037272;28;20033;-76
2022/08/04 00:22:28;;;;;;;5.70;2.83;;;20.70;91.10;;;;;;5037050;28;20456;-77
2022/08/04 00:25:01;;;;;;;5.15;3.08;;;20.70;91.10;;;;;;5036549;28;20040;-73
2022/08/04 00:27:29;;;;;;;4.65;3.00;;;20.70;91.30;;;;;;5037406;28;20024;-66
2022/08/04 00:29:56;;;;;;;6.70;3.22;;;20.70;91.50;;;;;;5036468;28;20114;-76
2022/08/04 00:32:22;;;;;;;8.10;3.40;;;20.60;91.60;;;;;;5036912;28;20078;-70
2022/08/04 00:34:48;;;;;;;5.63;3.30;;;20.60;91.60;;;;;;5052278;28;20045;-71
2022/08/04 00:37:15;;;;;;;8.35;3.30;;;20.50;91.70;;;;;;5036925;28;20466;-73
2022/08/04 00:39:42;;;;;;;4.70;2.88;;;20.50;91.60;;;;;;5036521;28;20052;-73
2022/08/04 00:42:17;;;;;;;4.28;2.70;;;20.50;91.70;;;;;;5036698;28;20024;-74
2022/08/04 00:45:04;;;;;;;5.55;2.95;;;20.50;91.60;;;;;;5036452;28;20041;-76
2022/08/04 00:47:52;;;;;;;5.18;2.60;;;20.50;91.60;;;;;;5036948;28;20570;-76
2022/08/04 00:50:26;;;;;;;5.35;3.03;;;20.60;91.60;;;;;;5037068;28;20025;-76
2022/08/04 00:53:08;;;;;;;4.05;2.42;;;20.60;91.50;;;;;;5032888;28;20066;-69
2022/08/04 00:55:52;;;;;;;5.57;2.90;;;20.60;91.40;;;;;;5033910;28;20087;-74
2022/08/04 00:59:00;;;;;;;5.25;2.92;;;20.70;91.50;;;;;;5015700;28;20030;-76
2022/08/04 01:01:41;;;;;;;5.95;2.72;;;20.60;91.40;;;;;;5000431;28;20059;-73
2022/08/04 01:04:14;;;;;;;4.93;3.05;;;20.60;91.30;;;;;;5033188;28;20120;-72
2022/08/04 01:06:43;;;;;;;7.07;3.22;;;20.60;91.20;;;;;;5015444;28;20057;-70
2022/08/04 01:09:46;;;;;;;6.72;3.22;;;20.60;91.20;;;;;;5015885;28;20112;-73
2022/08/04 01:12:20;;;;;;;5.18;2.80;;;20.60;91.20;;;;;;5013619;28;20026;-73
2022/08/04 01:15:06;;;;;;;3.97;2.35;;;20.60;91.10;;;;;;4995428;28;20034;-73
2022/08/04 01:17:35;;;;;;;5.13;2.95;;;20.60;91.10;;;;;;5013945;28;20022;-75
2022/08/04 01:20:15;;;;;;;4.65;2.97;;;20.60;91.00;;;;;;5012594;28;20042;-76
2022/08/04 01:22:47;;;;;;;;;;;20.60;91.00;;;;;;5014304;28;20037;-74
2022/08/04 01:25:47;;;;;;;4.75;2.60;;;20.50;91.00;;;;;;5028774;28;20325;-73
2022/08/04 01:28:50;;;;;;;6.18;2.72;;;20.50;91.00;;;;;;5013214;28;20529;-75
2022/08/04 01:31:41;;;;;;;6.90;2.70;;;20.50;91.10;;;;;;5013428;28;20022;-76
2022/08/04 01:34:10;;;;;;;3.45;2.50;;;20.40;91.10;;;;;;5012364;28;20103;-75
2022/08/04 01:36:44;;;;;;;5.13;2.38;;;20.40;91.20;;;;;;5013147;28;20034;-77
2022/08/04 01:41:56;;;;;;;6.80;3.00;;;20.30;91.30;;;;;;5012638;28;20087;-74
2022/08/04 01:44:23;;;;;;;5.70;2.58;;;20.30;91.40;;;;;;5013201;28;20040;-77
2022/08/04 01:46:50;;;;;;;6.28;2.70;;;20.20;91.60;;;;;;5012758;28;20026;-76
2022/08/04 01:49:18;;;;;;;4.95;2.50;;;20.20;91.70;;;;;;5012841;28;20056;-77
2022/08/04 01:51:45;;;;;;;4.45;2.30;;;20.10;91.80;;;;;;5012854;28;20022;-73
2022/08/04 01:54:11;;;;;;;6.18;2.85;;;20.10;92.00;;;;;;4995049;28;20038;-76
2022/08/04 01:56:38;;;;;;;5.22;2.70;;;20.00;92.10;;;;;;5012411;28;20119;-77
2022/08/04 01:59:04;;;;;;;6.95;3.28;;;20.00;92.30;;;;;;5012517;28;20156;-77
2022/08/04 02:01:35;;;;;;;5.28;2.80;;;19.90;92.50;;;;;;5012871;28;20097;-77
2022/08/04 02:04:00;;;;;;;;;;;19.90;92.70;;;;;;4993591;28;20095;-75
2022/08/04 02:07:04;;;;;;;6.03;2.85;;;19.90;93.20;;;;;;5012689;28;20362;-78
2022/08/04 02:10:01;;;;;;;4.45;2.47;;;19.80;92.90;;;;;;4994323;28;20340;-74
2022/08/04 02:12:27;;;;;;;5.97;2.45;;;19.80;92.90;;;;;;5012372;28;20034;-77
2022/08/04 02:14:58;;;;;;;4.90;2.40;;;19.80;92.90;;;;;;5011711;28;20088;-77
2022/08/04 02:17:33;;;;;;;4.68;2.40;;;19.80;92.90;;;;;;4994306;28;20029;-76
2022/08/04 02:20:14;;;;;;;6.85;2.50;;;19.80;92.80;;;;;;5012040;28;20050;-77
2022/08/04 02:22:59;;;;;;;4.35;2.53;;;19.80;92.80;;;;;;5012246;28;20038;-77
2022/08/04 02:25:27;;;;;;;6.20;2.55;;;19.80;92.70;;;;;;5012082;28;20022;-77
2022/08/04 02:28:17;;;;;;;6.30;2.65;;;19.80;92.60;;;;;;5012078;28;20084;-76
2022/08/04 02:30:55;;;;;;;5.13;2.80;;;19.80;92.60;;;;;;5011621;28;20018;-77
2022/08/04 02:33:29;;;;;;;5.40;2.22;;;19.80;92.50;;;;;;5012197;28;20164;-77
2022/08/04 02:35:59;;;;;;;4.47;2.75;;;19.80;92.60;;;;;;5011399;28;20120;-68
2022/08/04 02:38:51;;;;;;;5.75;2.70;;;19.70;92.60;;;;;;5011519;28;20109;-76
2022/08/04 02:41:20;;;;;;;5.80;2.95;;;19.70;92.90;;;;;;5011451;28;20033;-74
2022/08/04 02:43:48;;;;;;;4.50;2.22;;;19.60;93.10;;;;;;5011735;28;20030;-66
2022/08/04 02:46:18;;;;;;;5.53;2.40;;;19.50;93.20;;;;;;5011652;28;20355;-73
2022/08/04 02:48:46;;;;;;;3.47;2.33;;;19.50;93.30;;;;;;5011685;28;20037;-70
2022/08/04 02:51:13;;;;;;;6.30;2.70;;;19.40;93.40;;;;;;5011337;28;20355;-72
2022/08/04 02:53:40;;;;;;;5.57;2.70;;;19.40;93.40;;;;;;5011477;28;20026;-69
2022/08/04 02:56:08;;;;;;;4.88;2.42;;;19.40;93.50;;;;;;5011679;28;20033;-67
2022/08/04 02:58:35;;;;;;;3.45;1.83;;;19.40;93.50;;;;;;5010990;28;20048;-68
2022/08/04 03:01:02;;;;;;;4.82;2.58;;;19.40;93.40;;;;;;4993832;28;20437;-65
2022/08/04 03:03:39;;;;;;;4.50;2.60;;;19.40;93.40;;;;;;5011380;28;20116;-76
2022/08/04 03:06:11;;;;;;;3.20;2.10;;;19.40;93.30;;;;;;5010549;28;20859;-67
2022/08/04 03:08:57;;;;;;;4.53;2.70;;;19.40;93.20;;;;;;5011293;28;20086;-64
2022/08/04 03:11:31;;;;;;;5.38;2.63;;;19.40;93.10;;;;;;5010657;28;20030;-76
2022/08/04 03:14:41;;;;;;;5.35;2.88;;;19.40;93.10;;;;;;5010243;28;20030;-72
2022/08/04 03:17:36;;;;;;;5.82;2.63;;;19.40;93.00;;;;;;5011232;28;20030;-76
2022/08/04 03:20:32;;;;;;;6.95;3.58;;;19.50;92.90;;;;;;5010430;28;20041;-77
2022/08/04 03:23:58;;;;;;;16.27;8.20;;;19.50;92.80;;;;;;5011136;28;20030;-74
2022/08/04 03:26:29;;;;;;;18.15;8.73;;;19.50;92.80;;;;;;4970409;28;20208;-77
2022/08/04 03:29:05;;;;;;;19.50;9.98;;;19.50;93.00;;;;;;5011201;28;20026;-77
2022/08/04 03:32:07;;;;;;;18.27;9.68;;;19.50;92.70;;;;;;4993845;28;20432;-74
2022/08/04 03:34:36;;;;;;;12.75;7.53;;;19.50;92.70;;;;;;5010798;28;20061;-76
2022/08/04 03:37:19;;;;;;;12.02;6.68;;;19.50;92.60;;;;;;5010804;28;20029;-77
2022/08/04 03:39:48;;;;;;;11.85;6.85;;;19.60;92.60;;;;;;5010964;28;20050;-76
2022/08/04 03:42:47;;;;;;;11.50;5.55;;;19.60;92.50;;;;;;5010725;28;20125;-76
2022/08/04 03:45:55;;;;;;;7.30;3.67;;;19.60;92.40;;;;;;5011312;28;20033;-76
2022/08/04 03:48:58;;;;;;;6.82;3.05;;;19.70;92.40;;;;;;5010584;28;20033;-71
2022/08/04 03:54:45;;;;;;;4.17;2.50;;;19.80;92.20;;;;;;5010724;28;20383;-71
2022/08/04 03:57:32;;;;;;;7.82;2.47;;;19.80;92.10;;;;;;5011214;28;20081;-77
2022/08/04 04:00:19;;;;;;;4.07;2.60;;;19.80;92.10;;;;;;5010490;28;20427;-79
2022/08/04 04:02:50;;;;;;;6.70;2.28;;;19.80;92.10;;;;;;5010457;28;20131;-75
2022/08/04 04:05:48;;;;;;;6.47;2.55;;;19.80;92.10;;;;;;5010702;28;20467;-75
2022/08/04 04:08:46;;;;;;;5.28;3.05;;;19.80;92.20;;;;;;4993190;28;20037;-73
2022/08/04 04:11:33;;;;;;;6.22;2.72;;;19.80;92.10;;;;;;5011015;28;20032;-76
2022/08/04 04:14:21;;;;;;;5.10;2.67;;;19.80;92.20;;;;;;4992999;28;20114;-76
2022/08/04 04:16:46;;;;;;;4.47;2.38;;;19.80;92.20;;;;;;5010343;28;20030;-64
2022/08/04 04:19:23;;;;;;;4.18;2.15;;;19.80;92.20;;;;;;5010925;28;20497;-72
2022/08/04 04:22:12;;;;;;;6.57;2.22;;;19.80;92.10;;;;;;5010141;28;20029;-74
2022/08/04 04:24:48;;;;;;;8.30;2.40;;;19.90;92.00;;;;;;5010673;28;20079;-75
2022/08/04 04:27:17;;;;;;;3.90;2.33;;;19.90;92.00;;;;;;5016196;28;20036;-68
2022/08/04 04:29:59;;;;;;;4.65;2.30;;;20.00;91.90;;;;;;5034286;28;20693;-73
2022/08/04 04:32:43;;;;;;;4.93;2.60;;;20.00;91.80;;;;;;5032891;28;20033;-67
2022/08/04 04:35:21;;;;;;;5.90;2.22;;;20.10;91.70;;;;;;5033394;28;20466;-76
2022/08/04 04:37:56;;;;;;;5.75;2.30;;;20.10;91.60;;;;;;5029856;28;20029;-63
2022/08/04 04:40:44;;;;;;;7.45;2.05;;;20.20;91.60;;;;;;5038621;28;20228;-60
2022/08/04 04:43:38;;;;;;;6.22;2.40;;;20.20;91.50;;;;;;5032407;28;20490;-61
2022/08/04 04:46:36;;;;;;;5.10;2.20;;;20.20;91.40;;;;;;5033438;28;20050;-62
2022/08/04 04:49:34;;;;;;;4.82;2.78;;;20.30;91.40;;;;;;5016038;28;20237;-81
2022/08/04 04:52:19;;;;;;;5.05;2.13;;;20.30;91.30;;;;;;5038850;28;20038;-84
2022/08/04 04:55:01;;;;;;;5.43;2.00;;;20.40;91.20;;;;;;5025087;28;20033;-70
2022/08/04 04:57:30;;;;;;;6.78;2.40;;;20.40;91.00;;;;;;5027730;28;20099;-63
2022/08/04 04:59:58;;;;;;;6.30;2.50;;;20.50;90.90;;;;;;5000432;28;20030;-71
2022/08/04 05:02:45;;;;;;;4.53;2.25;;;20.60;90.90;;;;;;5014948;28;20033;-73
2022/08/04 05:05:13;;;;;;;5.20;1.83;;;20.70;90.70;;;;;;5031978;28;20575;-74
2022/08/04 05:07:52;;;;;;;6.45;2.20;;;20.80;90.50;;;;;;5000524;28;20030;-73
2022/08/04 05:10:58;;;;;;;6.95;2.00;;;20.80;90.40;;;;;;5021948;28;20029;-70
2022/08/04 05:13:43;;;;;;;5.32;2.22;;;20.90;90.30;;;;;;4969702;28;20111;-68
2022/08/04 05:16:18;;;;;;;8.32;3.20;;;21.00;90.20;;;;;;5014253;28;20081;-72
2022/08/04 05:18:48;;;;;;;6.30;3.05;;;21.10;90.00;;;;;;5032372;28;20044;-74
2022/08/04 05:21:33;;;;;;;6.35;2.53;;;21.30;90.00;;;;;;5031127;28;20036;-72
2022/08/04 05:24:03;;;;;;;3.72;1.90;;;21.40;89.90;;;;;;5022801;28;20025;-75
2022/08/04 05:26:37;;;;;;;8.52;3.05;;;21.50;89.50;;;;;;5011060;28;20029;-72
2022/08/04 05:29:08;;;;;;;6.80;2.13;;;21.50;89.30;;;;;;5023200;28;20091;-75
2022/08/04 05:31:39;;;;;;;8.82;2.20;;;21.60;89.10;;;;;;5021333;28;20030;-68
2022/08/04 05:34:10;;;;;;;5.72;2.40;;;21.70;89.20;;;;;;5024029;28;20120;-73
2022/08/04 05:36:48;;;;;;;6.03;2.00;;;21.70;88.80;;;;;;5028898;28;20033;-71
2022/08/04 05:39:23;;;;;;;7.50;2.45;;;21.80;88.10;;;;;;5015607;28;20041;-67
2022/08/04 05:41:50;;;;;;;4.57;1.55;;;22.00;87.50;;;;;;5020020;28;20486;-68
2022/08/04 05:44:17;;;;;;;5.28;2.00;;;22.10;86.50;;;;;;5027493;28;20084;-61
2022/08/04 05:46:49;;;;;;;6.57;1.85;;;22.30;85.60;;;;;;5001917;28;20056;-61
2022/08/04 05:49:16;;;;;;;7.75;1.92;;;22.50;84.90;;;;;;5032779;28;20022;-65
2022/08/04 05:51:43;;;;;;;6.97;2.05;;;22.70;84.10;;;;;;5027941;28;20026;-75
2022/08/04 05:54:10;;;;;;;8.65;2.42;;;22.80;83.20;;;;;;4994766;28;20068;-64
2022/08/04 05:56:37;;;;;;;5.38;2.00;;;22.90;83.60;;;;;;5018341;28;20121;-73
2022/08/04 05:59:04;;;;;;;3.47;1.45;;;23.00;82.60;;;;;;5031947;28;20374;-62
2022/08/04 06:01:30;;;;;;;5.10;2.42;;;23.10;82.40;;;;;;5033455;28;20414;-68
2022/08/04 06:03:58;;;;;;;4.47;1.63;;;23.20;82.20;;;;;;5021678;28;20025;-68
2022/08/04 06:06:25;;;;;;;4.70;2.05;;;23.30;81.70;;;;;;4994170;28;20022;-69
2022/08/04 06:08:53;;;;;;;4.15;1.73;;;23.30;81.60;;;;;;4992561;28;20029;-72
2022/08/04 06:11:21;;;;;;;4.20;1.67;;;23.40;81.50;;;;;;5012353;28;20029;-65
2022/08/04 06:13:52;;;;;;;9.70;2.08;;;23.50;81.30;;;;;;5011685;28;20026;-60
2022/08/04 06:16:23;;;;;;;5.43;1.88;;;23.50;81.00;;;;;;5011985;28;20037;-68
2022/08/04 06:18:52;;;;;;;5.07;1.92;;;23.60;80.80;;;;;;5012034;28;20423;-70
2022/08/04 06:21:23;;;;;;;6.35;2.15;;;23.70;80.70;;;;;;5012348;28;20056;-68
2022/08/04 06:23:51;;;;;;;7.60;2.22;;;23.80;80.30;;;;;;5011862;28;20022;-74
2022/08/04 06:26:20;;;;;;;4.05;1.90;;;23.80;79.80;;;;;;5012413;28;20026;-73
2022/08/04 06:28:49;;;;;;;3.47;1.75;;;23.90;79.70;;;;;;4993970;28;20433;-65
2022/08/04 06:34:05;;;;;;;7.13;2.20;;;24.10;79.90;;;;;;5011812;28;20136;-79
2022/08/04 06:36:31;;;;;;;6.03;1.98;;;24.20;79.80;;;;;;5011849;28;20032;-79
2022/08/04 06:38:58;;;;;;;4.43;2.00;;;24.30;79.70;;;;;;5011711;28;20534;-63
2022/08/04 06:41:25;;;;;;;5.90;2.30;;;24.30;79.40;;;;;;5011518;28;20081;-60
2022/08/04 06:43:52;;;;;;;5.13;2.00;;;24.40;79.20;;;;;;5011198;28;20026;-60
2022/08/04 06:46:19;;;;;;;4.93;2.13;;;24.50;78.90;;;;;;5011925;28;20048;-61
2022/08/04 06:48:45;;;;;;;4.35;2.00;;;24.60;78.60;;;;;;5011849;28;20104;-64
2022/08/04 06:51:13;;;;;;;5.95;1.85;;;24.70;78.30;;;;;;4992642;28;20457;-60
2022/08/04 06:53:39;;;;;;;4.38;2.10;;;24.90;78.30;;;;;;5011528;28;20026;-60
2022/08/04 06:56:07;;;;;;;6.85;2.20;;;25.00;77.90;;;;;;5011156;28;20393;-59
2022/08/04 06:58:34;;;;;;;5.35;2.30;;;25.10;77.60;;;;;;5011376;28;20064;-59
2022/08/04 07:01:00;;;;;;;5.85;2.15;;;25.20;77.30;;;;;;5011303;28;20077;-60
2022/08/04 07:03:27;;;;;;;4.05;1.98;;;25.30;77.10;;;;;;5011447;28;20124;-78
2022/08/04 07:05:53;;;;;;;5.13;2.65;;;25.40;76.70;;;;;;5011027;28;20017;-71
2022/08/04 07:08:20;;;;;;;6.80;2.05;;;25.50;75.50;;;;;;5011523;28;20022;-69
2022/08/04 07:10:46;;;;;;;5.75;2.03;;;25.60;75.00;;;;;;5011029;28;20050;-67
2022/08/04 07:13:12;;;;;;;4.30;1.80;;;25.70;74.90;;;;;;5011293;28;20057;-74
2022/08/04 07:15:42;;;;;;;4.00;2.28;;;25.80;74.60;;;;;;5011900;28;20029;-69
2022/08/04 07:18:08;;;;;;;4.45;2.40;;;25.90;74.40;;;;;;5011073;28;20121;-77
2022/08/04 07:20:33;;;;;;;5.70;2.45;;;26.00;73.70;;;;;;5011160;28;20545;-77
2022/08/04 07:23:00;;;;;;;6.20;2.78;;;26.10;73.30;;;;;;5011116;28;20022;-75
2022/08/04 07:25:27;;;;;;;9.38;3.00;;;26.10;73.30;;;;;;5010849;28;20026;-75
2022/08/04 07:27:52;;;;;;;5.00;2.65;;;26.10;71.00;;;;;;5011273;28;20050;-76
2022/08/04 07:30:18;;;;;;;10.23;2.85;;;26.20;70.70;;;;;;5011186;28;20422;-77
2022/08/04 07:32:45;;;;;;;6.38;2.80;;;26.30;70.30;;;;;;5010686;28;20025;-66
2022/08/04 07:35:12;;;;;;;7.28;2.70;;;26.40;68.90;;;;;;5011050;28;20054;-76
2022/08/04 07:37:38;;;;;;;7.30;2.85;;;26.50;67.90;;;;;;5010804;28;20516;-75
2022/08/04 07:40:05;;;;;;;5.75;2.30;;;26.60;68.00;;;;;;5010374;28;20130;-76
2022/08/04 07:42:30;;;;;;;4.80;1.90;;;26.70;68.00;;;;;;5011005;28;20026;-77
2022/08/04 07:44:57;;;;;;;5.63;2.10;;;26.80;67.80;;;;;;5010818;28;20028;-71
2022/08/04 07:47:23;;;;;;;5.03;2.38;;;26.90;67.60;;;;;;5010807;28;20049;-71
2022/08/04 07:49:49;;;;;;;6.55;2.00;;;27.00;65.90;;;;;;5010778;28;20033;-73
2022/08/04 07:52:15;;;;;;;8.52;2.30;;;27.00;65.60;;;;;;5010836;28;20026;-69
2022/08/04 07:54:42;;;;;;;10.38;2.40;;;27.00;65.30;;;;;;5010770;28;20022;-76
2022/08/04 07:57:07;;;;;;;7.95;2.22;;;27.20;64.20;;;;;;4993149;28;20359;-75
2022/08/04 07:59:34;;;;;;;3.45;2.00;;;27.20;64.20;;;;;;5010661;28;20034;-75
2022/08/04 08:02:00;;;;;;;4.63;1.90;;;27.30;64.00;;;;;;4994557;28;20116;-74
2022/08/04 08:04:27;;;;;;;7.50;2.40;;;27.50;64.30;;;;;;5015227;28;20018;-74
2022/08/04 08:06:53;;;;;;;5.35;1.90;;;27.60;63.60;;;;;;5014552;28;20033;-71
2022/08/04 08:09:22;;;;;;;6.65;2.00;;;27.70;63.40;;;;;;5014465;28;20029;-72
2022/08/04 08:11:51;;;;;;;5.28;2.13;;;27.80;62.40;;;;;;5014418;28;20327;-79
2022/08/04 08:14:17;;;;;;;7.65;2.10;;;27.90;61.80;;;;;;5014655;28;20382;-79
2022/08/04 08:16:44;;;;;;;4.55;1.90;;;28.00;62.50;;;;;;5014552;28;20104;-76
2022/08/04 08:19:10;;;;;;;6.82;2.22;;;28.20;62.70;;;;;;5014468;28;20444;-73
2022/08/04 08:21:36;;;;;;;5.85;1.98;;;28.30;59.60;;;;;;4996448;28;20018;-76
2022/08/04 08:24:03;;;;;;;9.88;3.13;;;28.30;59.70;;;;;;4996611;28;20077;-76
2022/08/04 08:26:29;;;;;;;7.32;2.03;;;28.40;59.80;;;;;;5014682;28;20025;-79
2022/08/04 08:28:55;;;;;;;7.50;2.15;;;28.40;59.00;;;;;;5014345;28;20101;-80
2022/08/04 08:31:21;;;;;;;6.18;1.92;;;28.50;58.80;;;;;;4997101;28;20046;-78
2022/08/04 08:33:50;;;;;;;3.55;1.80;;;28.40;58.60;;;;;;5014130;28;20077;-75
2022/08/04 08:36:29;;;;;;;6.38;1.90;;;28.50;59.20;;;;;;4996427;28;20133;-79
2022/08/04 08:39:16;;;;;;;5.05;1.83;;;28.70;59.50;;;;;;5014310;28;20038;-76
2022/08/04 08:42:01;;;;;;;5.22;1.85;;;28.80;59.10;;;;;;5014211;28;20048;-77
2022/08/04 08:44:55;;;;;;;4.30;1.60;;;28.90;59.40;;;;;;5014181;28;20096;-79
2022/08/04 08:47:32;;;;;;;3.63;1.75;;;29.10;60.00;;;;;;5014641;28;20022;-79
2022/08/04 08:50:39;;;;;;;3.95;2.08;;;29.40;60.10;;;;;;5013822;28;20040;-79
2022/08/04 08:53:10;;;;;;;4.63;2.10;;;29.60;60.20;;;;;;4990452;28;20034;-73
2022/08/04 08:55:42;;;;;;;5.60;1.85;;;29.90;59.90;;;;;;5013941;28;20029;-80
2022/08/04 08:58:22;;;;;;;5.10;2.05;;;30.20;59.70;;;;;;5013420;28;20026;-76
2022/08/04 09:01:06;;;;;;;;;;;30.40;59.10;;;;;;5014278;28;20034;-74
2022/08/04 09:03:56;;;;;;;4.25;1.50;;;30.40;58.60;;;;;;5013873;28;19909;-64
2022/08/04 09:06:55;;;;;;;7.50;1.90;;;30.40;59.00;;;;;;5013624;28;20022;-61
2022/08/04 09:09:41;;;;;;;6.03;1.92;;;30.50;58.60;;;;;;5013207;28;20096;-65
2022/08/04 09:12:55;;;;;;;4.47;1.92;;;30.60;57.70;;;;;;5012519;28;20034;-60
2022/08/04 09:15:35;;;;;;;6.10;1.55;;;30.60;56.90;;;;;;4952527;29;20511;-61
2022/08/04 09:18:18;;;;;;;4.22;1.83;;;30.50;56.70;;;;;;5011510;28;20042;-79
2022/08/04 09:21:03;;;;;;;5.80;2.08;;;30.50;57.10;;;;;;5013685;28;20034;-68
2022/08/04 09:23:55;;;;;;;2.70;1.38;;;30.50;57.40;;;;;;5013388;28;20037;-78
2022/08/04 09:26:33;;;;;;;3.20;1.60;;;30.50;57.20;;;;;;5013056;28;20026;-77
2022/08/04 09:29:06;;;;;;;4.35;1.58;;;30.60;57.30;;;;;;5013242;28;20026;-77
2022/08/04 09:32:16;;;;;;;2.90;1.20;;;30.60;57.00;;;;;;5028417;28;20490;-68
2022/08/04 09:35:03;;;;;;;4.35;1.63;;;30.60;57.50;;;;;;4997871;28;20054;-74
2022/08/04 09:37:43;;;;;;;4.25;1.90;;;30.70;56.00;;;;;;5013343;28;20022;-78
2022/08/04 09:40:20;;;;;;;5.60;2.05;;;30.80;52.60;;;;;;5012491;28;20042;-79
2022/08/04 09:43:00;;;;;;;2.53;1.55;;;30.60;52.60;;;;;;5012833;28;20029;-62
2022/08/04 09:45:37;;;;;;;5.55;2.13;;;30.40;53.00;;;;;;5013123;28;20064;-79
2022/08/04 09:48:18;;;;;;;5.32;1.65;;;30.30;53.80;;;;;;5012463;28;20107;-78
2022/08/04 09:50:45;;;;;;;3.78;1.75;;;30.30;53.80;;;;;;5012679;28;20489;-73
2022/08/04 09:53:19;;;;;;;4.82;1.90;;;30.40;54.30;;;;;;5012204;28;20014;-72
2022/08/04 09:55:45;;;;;;;4.18;1.95;;;30.40;53.30;;;;;;5028223;28;20501;-65
2022/08/04 09:58:25;;;;;;;6.95;2.50;;;30.50;53.70;;;;;;5012625;28;20045;-71
2022/08/04 10:01:02;;;;;;;6.50;2.35;;;30.60;53.80;;;;;;5011991;28;20061;-78
2022/08/04 10:03:33;;;;;;;6.30;2.40;;;30.60;53.60;;;;;;5012754;28;20026;-77
2022/08/04 10:06:35;;;;;;;4.85;2.17;;;30.60;53.80;;;;;;5012229;28;20018;-67
2022/08/04 10:09:38;;;;;;;3.67;2.00;;;30.70;53.90;;;;;;5011921;28;20402;-70
2022/08/04 10:12:24;;;;;;;2.88;1.75;;;30.90;53.40;;;;;;5012063;28;20026;-67
2022/08/04 10:15:07;;;;;;;3.28;1.70;;;31.20;52.70;;;;;;5011883;28;20083;-79
2022/08/04 10:18:01;;;;;;;7.25;2.30;;;31.40;52.20;;;;;;5012568;28;20064;-70
2022/08/04 10:21:09;;;;;;;4.55;1.60;;;31.40;50.90;;;;;;5012245;28;20129;-73
2022/08/04 10:23:51;;;;;;;6.93;2.25;;;31.40;50.70;;;;;;5012315;28;20018;-75
2022/08/04 10:26:41;;;;;;;5.03;1.85;;;31.50;51.60;;;;;;5011239;28;20079;-74
2022/08/04 10:29:12;;;;;;;;;;;31.50;51.50;;;;;;5011905;28;20477;-70
2022/08/04 10:31:53;;;;;;;6.03;2.55;;;31.50;52.20;;;;;;5012336;28;19952;-78
2022/08/04 10:34:24;;;;;;;5.75;2.25;;;31.40;52.00;;;;;;5011920;28;20018;-77
2022/08/04 10:37:02;;;;;;;6.25;1.85;;;31.40;52.70;;;;;;4993745;28;20075;-75
2022/08/04 10:39:38;;;;;;;6.03;2.13;;;31.30;52.00;;;;;;5012079;28;20140;-79
2022/08/04 10:42:36;;;;;;;4.07;1.90;;;31.10;52.50;;;;;;5011521;28;20022;-64
2022/08/04 10:45:17;;;;;;;3.92;2.00;;;30.80;52.30;;;;;;4999873;28;20029;-83
2022/08/04 10:47:53;;;;;;;2.20;1.55;;;30.50;53.20;;;;;;5011957;28;20076;-78
2022/08/04 10:50:20;;;;;;;3.55;1.90;;;30.30;54.10;;;;;;5011603;28;20033;-81
2022/08/04 10:52:56;;;;;;;4.55;1.77;;;30.10;54.60;;;;;;5011774;28;20497;-63
2022/08/04 10:55:44;;;;;;;3.70;1.67;;;29.90;54.90;;;;;;5012028;28;20029;-81
2022/08/04 10:58:17;;;;;;;4.07;2.00;;;29.70;55.50;;;;;;5011251;28;20033;-68
2022/08/04 11:00:45;;;;;;;4.22;1.60;;;29.50;56.20;;;;;;5012007;28;20087;-76
2022/08/04 11:03:32;;;;;;;5.35;2.30;;;29.20;56.90;;;;;;5011324;28;20459;-80
2022/08/04 11:06:01;;;;;;;3.20;1.65;;;29.00;57.70;;;;;;5011978;28;20498;-81
2022/08/04 11:08:42;;;;;;;4.55;1.92;;;28.70;58.20;;;;;;5012346;28;20041;-82
2022/08/04 11:11:18;;;;;;;4.88;2.10;;;28.50;59.00;;;;;;5011091;28;20082;-81
2022/08/04 11:14:12;;;;;;;6.15;2.15;;;28.30;62.20;;;;;;5011666;28;20053;-83
2022/08/04 11:16:50;;;;;;;7.75;2.60;;;27.50;67.30;;;;;;4996274;28;20032;-83
2022/08/04 11:19:47;;;;;;;6.18;2.28;;;26.70;70.00;;;;;;5026132;28;20030;-83
2022/08/04 11:22:25;;;;;;;4.35;1.83;;;26.20;74.10;;;;;;4993613;28;20022;-83
2022/08/04 11:25:05;;;;;;;4.22;1.63;;;25.70;77.40;;;;;;5010668;28;20044;-60
2022/08/04 11:27:55;;;;;;;5.57;1.95;;;25.40;79.10;;;;;;5011191;28;20029;-60
2022/08/04 11:30:29;;;;;;;6.88;2.17;;;25.20;81.10;;;;;;5011374;28;20029;-72
2022/08/04 11:33:02;;;;;;;5.20;2.15;;;25.10;82.80;;;;;;5010525;28;20026;-64
2022/08/04 11:35:34;;;;;;;4.50;2.13;;;24.80;84.20;;;;;;5011040;28;20172;-70
2022/08/04 11:38:18;;;;;;;6.30;2.20;;;24.60;86.30;;;;;;5010655;28;20033;-64
2022/08/04 11:40:48;;;;;;;4.55;2.00;;;24.50;87.10;;;;;;5010851;28;20157;-70
2022/08/04 11:43:57;;;;;;;4.27;2.10;;;24.30;88.80;;;;;;5011249;28;20014;-67
2022/08/04 11:46:43;;;;;;;5.28;2.50;;;24.10;90.90;;;;;;4981722;28;20301;-68
2022/08/04 11:49:45;;;;;;;4.97;2.22;;;23.90;92.60;;;;;;5011157;28;20357;-75
2022/08/04 11:52:15;;;;;;;5.80;2.40;;;23.90;93.70;;;;;;4979531;28;20058;-68
2022/08/04 11:54:43;;;;;;;7.00;2.15;;;23.80;94.20;;;;;;5010762;28;20073;-66
2022/08/04 11:57:10;;;;;;;6.65;3.08;;;23.70;94.50;;;;;;5010415;28;20101;-72
2022/08/04 11:59:36;;;;;;;6.65;3.00;;;23.70;95.00;;;;;;5010485;28;20121;-68
2022/08/04 12:02:16;;;;;;;5.43;2.72;;;23.60;95.00;;;;;;5010821;28;20032;-69
2022/08/04 12:05:00;;;;;;;6.13;2.45;;;23.70;94.50;;;;;;5025962;28;20060;-70
2022/08/04 12:07:41;;;;;;;6.50;3.13;;;23.80;93.70;;;;;;4992859;28;20022;-76
2022/08/04 12:10:13;;;;;;;8.10;2.80;;;23.90;93.90;;;;;;5010780;28;20044;-75
2022/08/04 12:13:04;;;;;;;7.43;2.50;;;23.90;93.40;;;;;;5010532;28;20021;-71
2022/08/04 12:16:00;;;;;;;6.22;2.42;;;24.10;92.90;;;;;;5010374;28;20128;-66
2022/08/04 12:18:41;;;;;;;6.50;2.50;;;24.30;92.60;;;;;;5007555;28;20045;-74
2022/08/04 12:21:13;;;;;;;7.55;2.47;;;24.50;92.30;;;;;;5010185;28;20080;-71
2022/08/04 12:23:42;;;;;;;6.50;2.72;;;24.70;92.20;;;;;;5010881;28;20379;-73
2022/08/04 12:26:23;;;;;;;4.38;2.55;;;24.90;91.90;;;;;;5010341;28;20545;-78
2022/08/04 12:28:54;;;;;;;4.63;2.45;;;25.10;91.70;;;;;;5010077;28;20037;-74
2022/08/04 12:31:29;;;;;;;5.40;2.63;;;25.10;91.60;;;;;;5010864;28;20135;-74
2022/08/04 12:34:00;;;;;;;4.85;2.58;;;25.10;91.60;;;;;;5010253;28;20033;-72
2022/08/04 12:36:54;;;;;;;4.97;2.90;;;25.10;91.50;;;;;;5010436;28;20041;-70
2022/08/04 12:39:21;;;;;;;3.33;2.33;;;25.10;91.20;;;;;;5025687;28;20483;-68
2022/08/04 12:42:14;;;;;;;5.82;2.40;;;25.00;91.40;;;;;;5010107;28;20060;-72
2022/08/04 12:44:42;;;;;;;7.10;3.03;;;25.20;91.40;;;;;;5010405;28;20505;-76
2022/08/04 12:47:10;;;;;;;6.40;2.40;;;25.50;91.40;;;;;;5010425;28;20467;-69
2022/08/04 12:49:40;;;;;;;5.53;2.53;;;25.80;90.40;;;;;;5013154;28;20466;-77
2022/08/04 12:52:07;;;;;;;4.47;2.53;;;26.10;89.80;;;;;;5014088;28;20027;-75
2022/08/04 12:54:37;;;;;;;5.50;2.45;;;26.30;88.10;;;;;;5013882;28;20366;-76
2022/08/04 12:57:05;;;;;;;6.15;2.60;;;26.40;87.60;;;;;;5013548;28;20021;-66
2022/08/04 12:59:38;;;;;;;5.88;2.72;;;26.40;86.50;;;;;;4996272;28;20042;-66
2022/08/04 13:02:10;;;;;;;4.25;2.08;;;26.40;85.10;;;;;;5013180;28;20053;-73
2022/08/04 13:04:41;;;;;;;5.82;2.55;;;26.40;85.60;;;;;;5013553;28;20034;-68
2022/08/04 13:07:15;;;;;;;4.57;2.03;;;26.40;85.50;;;;;;4995754;28;20433;-79
2022/08/04 13:09:42;;;;;;;6.72;3.58;;;26.50;85.20;;;;;;5029126;28;20022;-69
2022/08/04 13:12:12;;;;;;;7.82;3.08;;;26.50;85.40;;;;;;5012761;28;20026;-66
2022/08/04 13:14:42;;;;;;;3.70;2.13;;;26.50;83.60;;;;;;5013626;28;20051;-71
2022/08/04 13:17:07;;;;;;;7.72;3.03;;;26.50;83.50;;;;;;5013011;28;20153;-78
2022/08/04 13:19:34;;;;;;;4.28;1.90;;;26.50;83.50;;;;;;5013440;28;20049;-61
2022/08/04 13:22:00;;;;;;;4.78;2.53;;;26.60;83.60;;;;;;5027844;28;20364;-61
2022/08/04 13:24:28;;;;;;;4.75;2.50;;;26.70;82.90;;;;;;4995447;28;20076;-63
2022/08/04 13:27:12;;;;;;;6.05;2.03;;;26.80;83.20;;;;;;5012866;28;20022;-62
2022/08/04 13:29:45;;;;;;;5.53;2.13;;;26.90;82.20;;;;;;5013215;28;20053;-61
2022/08/04 13:32:17;;;;;;;4.40;2.15;;;26.90;80.50;;;;;;5012705;28;20076;-66
2022/08/04 13:34:44;;;;;;;4.10;1.80;;;26.90;78.40;;;;;;5013105;28;20113;-65
2022/08/04 13:37:13;;;;;;;3.60;1.83;;;26.90;77.50;;;;;;4995049;28;20375;-64
2022/08/04 13:39:45;;;;;;;3.28;1.48;;;27.00;76.00;;;;;;5012535;28;20073;-61
2022/08/04 13:42:13;;;;;;;4.50;2.00;;;27.10;75.50;;;;;;5013170;28;20033;-61
2022/08/04 13:44:42;;;;;;;4.32;2.17;;;27.20;74.50;;;;;;5015924;28;20153;-65